sensor_id;sensor_type;location;lat;lon;timestamp;P1;durP1;ratioP1;P2;durP2;ratioP2
19951;SDS011;10137;49.406;19.484;2022-08-23T00:02:04;6.83;;;4.27;;
19951;SDS011;10137;49.406;19.484;2022-08-23T00:04:35;5.83;;;3.67;;
19951;SDS011;10137;49.406;19.484;2022-08-23T00:07:04;8.57;;;3.93;;
19951;SDS011;10137;49.406;19.484;2022-08-23T00:09:33;9.43;;;3.80;;
19951;SDS011;10137;49.406;19.484;2022-08-23T00:12:06;4.83;;;3.93;;
19951;SDS011;10137;49.406;19.484;2022-08-23T00:14:38;11.67;;;4.40;;
19951;SDS011;10137;49.406;19.484;2022-08-23T00:17:10;6.33;;;4.10;;
19951;SDS011;10137;49.406;19.484;2022-08-23T00:19:40;7.17;;;4.47;;
19951;SDS011;10137;49.406;19.484;2022-08-23T00:22:09;6.23;;;4.80;;
19951;SDS011;10137;49.406;19.484;2022-08-23T00:24:37;8.50;;;5.40;;
19951;SDS011;10137;49.406;19.484;2022-08-23T00:27:06;7.70;;;5.50;;
19951;SDS011;10137;49.406;19.484;2022-08-23T00:29:36;8.93;;;4.50;;
19951;SDS011;10137;49.406;19.484;2022-08-23T00:32:05;6.73;;;4.60;;
19951;SDS011;10137;49.406;19.484;2022-08-23T00:34:34;7.63;;;5.03;;
19951;SDS011;10137;49.406;19.484;2022-08-23T00:37:04;7.93;;;4.70;;
19951;SDS011;10137;49.406;19.484;2022-08-23T00:39:32;5.00;;;3.90;;
19951;SDS011;10137;49.406;19.484;2022-08-23T00:42:03;7.93;;;4.30;;
19951;SDS011;10137;49.406;19.484;2022-08-23T00:44:54;4.93;;;3.70;;
19951;SDS011;10137;49.406;19.484;2022-08-23T00:47:40;6.27;;;3.87;;
19951;SDS011;10137;49.406;19.484;2022-08-23T00:50:11;5.93;;;3.70;;
19951;SDS011;10137;49.406;19.484;2022-08-23T00:52:49;7.20;;;4.07;;
19951;SDS011;10137;49.406;19.484;2022-08-23T00:55:26;6.13;;;4.27;;
19951;SDS011;10137;49.406;19.484;2022-08-23T00:57:53;6.97;;;4.43;;
19951;SDS011;10137;49.406;19.484;2022-08-23T01:00:22;6.03;;;4.00;;
19951;SDS011;10137;49.406;19.484;2022-08-23T01:02:50;5.77;;;3.80;;
19951;SDS011;10137;49.406;19.484;2022-08-23T01:05:19;7.57;;;4.67;;
19951;SDS011;10137;49.406;19.484;2022-08-23T01:07:50;7.67;;;3.90;;
19951;SDS011;10137;49.406;19.484;2022-08-23T01:10:22;5.53;;;3.90;;
19951;SDS011;10137;49.406;19.484;2022-08-23T01:12:55;3.97;;;3.40;;
19951;SDS011;10137;49.406;19.484;2022-08-23T01:15:28;5.27;;;3.60;;
19951;SDS011;10137;49.406;19.484;2022-08-23T01:18:02;5.00;;;3.23;;
19951;SDS011;10137;49.406;19.484;2022-08-23T01:20:35;5.60;;;3.80;;
19951;SDS011;10137;49.406;19.484;2022-08-23T01:23:22;5.83;;;3.83;;
19951;SDS011;10137;49.406;19.484;2022-08-23T01:26:03;6.20;;;4.10;;
19951;SDS011;10137;49.406;19.484;2022-08-23T01:28:31;5.77;;;3.80;;
19951;SDS011;10137;49.406;19.484;2022-08-23T01:30:59;8.93;;;4.50;;
19951;SDS011;10137;49.406;19.484;2022-08-23T01:33:29;4.23;;;3.43;;
19951;SDS011;10137;49.406;19.484;2022-08-23T01:35:56;8.23;;;4.07;;
19951;SDS011;10137;49.406;19.484;2022-08-23T01:38:26;7.00;;;3.80;;
19951;SDS011;10137;49.406;19.484;2022-08-23T01:40:54;4.43;;;3.50;;
19951;SDS011;10137;49.406;19.484;2022-08-23T01:43:21;5.77;;;3.60;;
19951;SDS011;10137;49.406;19.484;2022-08-23T01:45:49;5.97;;;3.70;;
19951;SDS011;10137;49.406;19.484;2022-08-23T01:48:18;6.37;;;3.83;;
19951;SDS011;10137;49.406;19.484;2022-08-23T01:50:47;5.53;;;3.50;;
19951;SDS011;10137;49.406;19.484;2022-08-23T01:53:15;8.33;;;3.43;;
19951;SDS011;10137;49.406;19.484;2022-08-23T01:55:43;4.63;;;3.30;;
19951;SDS011;10137;49.406;19.484;2022-08-23T01:58:13;5.33;;;3.10;;
19951;SDS011;10137;49.406;19.484;2022-08-23T02:00:42;7.23;;;3.40;;
19951;SDS011;10137;49.406;19.484;2022-08-23T02:03:09;4.40;;;3.17;;
19951;SDS011;10137;49.406;19.484;2022-08-23T02:05:39;4.83;;;3.43;;
19951;SDS011;10137;49.406;19.484;2022-08-23T02:08:07;5.53;;;3.60;;
19951;SDS011;10137;49.406;19.484;2022-08-23T02:10:53;5.63;;;3.73;;
19951;SDS011;10137;49.406;19.484;2022-08-23T02:13:21;4.57;;;3.57;;
19951;SDS011;10137;49.406;19.484;2022-08-23T02:15:49;7.47;;;4.30;;
19951;SDS011;10137;49.406;19.484;2022-08-23T02:18:18;4.70;;;3.70;;
19951;SDS011;10137;49.406;19.484;2022-08-23T02:20:48;6.63;;;4.70;;
19951;SDS011;10137;49.406;19.484;2022-08-23T02:23:17;8.63;;;4.93;;
19951;SDS011;10137;49.406;19.484;2022-08-23T02:25:46;6.37;;;4.50;;
19951;SDS011;10137;49.406;19.484;2022-08-23T02:28:17;7.23;;;4.50;;
19951;SDS011;10137;49.406;19.484;2022-08-23T02:30:44;6.00;;;4.20;;
19951;SDS011;10137;49.406;19.484;2022-08-23T02:33:12;3.93;;;3.20;;
19951;SDS011;10137;49.406;19.484;2022-08-23T02:35:40;4.67;;;3.73;;
19951;SDS011;10137;49.406;19.484;2022-08-23T02:38:09;5.10;;;3.63;;
19951;SDS011;10137;49.406;19.484;2022-08-23T02:40:39;4.50;;;3.60;;
19951;SDS011;10137;49.406;19.484;2022-08-23T02:43:06;4.97;;;3.93;;
19951;SDS011;10137;49.406;19.484;2022-08-23T02:45:36;4.40;;;3.80;;
19951;SDS011;10137;49.406;19.484;2022-08-23T02:48:03;5.13;;;3.30;;
19951;SDS011;10137;49.406;19.484;2022-08-23T02:50:33;4.93;;;3.67;;
19951;SDS011;10137;49.406;19.484;2022-08-23T02:53:02;4.93;;;3.83;;
19951;SDS011;10137;49.406;19.484;2022-08-23T02:55:31;8.33;;;4.20;;
19951;SDS011;10137;49.406;19.484;2022-08-23T02:57:58;5.03;;;3.90;;
19951;SDS011;10137;49.406;19.484;2022-08-23T03:00:26;7.27;;;4.20;;
19951;SDS011;10137;49.406;19.484;2022-08-23T03:02:54;5.23;;;3.63;;
19951;SDS011;10137;49.406;19.484;2022-08-23T03:05:23;6.20;;;3.60;;
19951;SDS011;10137;49.406;19.484;2022-08-23T03:07:50;4.73;;;3.60;;
19951;SDS011;10137;49.406;19.484;2022-08-23T03:10:17;11.63;;;5.57;;
19951;SDS011;10137;49.406;19.484;2022-08-23T03:12:45;15.33;;;7.20;;
19951;SDS011;10137;49.406;19.484;2022-08-23T03:15:12;19.70;;;10.30;;
19951;SDS011;10137;49.406;19.484;2022-08-23T03:17:40;17.67;;;9.23;;
19951;SDS011;10137;49.406;19.484;2022-08-23T03:20:09;13.77;;;6.83;;
19951;SDS011;10137;49.406;19.484;2022-08-23T03:22:37;9.87;;;5.63;;
19951;SDS011;10137;49.406;19.484;2022-08-23T03:25:05;6.97;;;5.00;;
19951;SDS011;10137;49.406;19.484;2022-08-23T03:27:33;10.30;;;4.73;;
19951;SDS011;10137;49.406;19.484;2022-08-23T03:30:00;6.63;;;4.57;;
19951;SDS011;10137;49.406;19.484;2022-08-23T03:32:27;11.07;;;5.00;;
19951;SDS011;10137;49.406;19.484;2022-08-23T03:34:54;8.07;;;5.50;;
19951;SDS011;10137;49.406;19.484;2022-08-23T03:37:23;6.70;;;4.90;;
19951;SDS011;10137;49.406;19.484;2022-08-23T03:39:50;5.77;;;4.63;;
19951;SDS011;10137;49.406;19.484;2022-08-23T03:42:19;9.20;;;5.27;;
19951;SDS011;10137;49.406;19.484;2022-08-23T03:44:47;7.10;;;4.40;;
19951;SDS011;10137;49.406;19.484;2022-08-23T03:47:15;5.80;;;4.20;;
19951;SDS011;10137;49.406;19.484;2022-08-23T03:49:44;9.27;;;4.70;;
19951;SDS011;10137;49.406;19.484;2022-08-23T03:52:12;5.77;;;4.17;;
19951;SDS011;10137;49.406;19.484;2022-08-23T03:54:42;7.40;;;4.70;;
19951;SDS011;10137;49.406;19.484;2022-08-23T03:57:09;6.93;;;4.43;;
19951;SDS011;10137;49.406;19.484;2022-08-23T03:59:39;5.17;;;4.00;;
19951;SDS011;10137;49.406;19.484;2022-08-23T04:02:07;7.93;;;4.10;;
19951;SDS011;10137;49.406;19.484;2022-08-23T04:04:36;5.23;;;4.20;;
19951;SDS011;10137;49.406;19.484;2022-08-23T04:07:03;5.50;;;4.57;;
19951;SDS011;10137;49.406;19.484;2022-08-23T04:09:31;8.67;;;5.07;;
19951;SDS011;10137;49.406;19.484;2022-08-23T04:12:05;10.37;;;5.07;;
19951;SDS011;10137;49.406;19.484;2022-08-23T04:14:37;8.57;;;5.27;;
19951;SDS011;10137;49.406;19.484;2022-08-23T04:17:05;7.57;;;5.33;;
19951;SDS011;10137;49.406;19.484;2022-08-23T04:19:34;8.20;;;5.10;;
19951;SDS011;10137;49.406;19.484;2022-08-23T04:22:02;10.57;;;5.03;;
19951;SDS011;10137;49.406;19.484;2022-08-23T04:24:30;8.73;;;4.80;;
19951;SDS011;10137;49.406;19.484;2022-08-23T04:27:00;9.10;;;5.20;;
19951;SDS011;10137;49.406;19.484;2022-08-23T04:29:28;6.00;;;4.73;;
19951;SDS011;10137;49.406;19.484;2022-08-23T04:31:56;6.93;;;4.70;;
19951;SDS011;10137;49.406;19.484;2022-08-23T04:34:25;6.20;;;4.60;;
19951;SDS011;10137;49.406;19.484;2022-08-23T04:36:54;6.70;;;4.70;;
19951;SDS011;10137;49.406;19.484;2022-08-23T04:39:21;7.93;;;5.40;;
19951;SDS011;10137;49.406;19.484;2022-08-23T04:41:49;8.13;;;5.27;;
19951;SDS011;10137;49.406;19.484;2022-08-23T04:44:36;9.27;;;4.80;;
19951;SDS011;10137;49.406;19.484;2022-08-23T04:47:06;9.27;;;5.10;;
19951;SDS011;10137;49.406;19.484;2022-08-23T04:49:34;10.23;;;5.47;;
19951;SDS011;10137;49.406;19.484;2022-08-23T04:52:02;9.60;;;5.57;;
19951;SDS011;10137;49.406;19.484;2022-08-23T04:54:33;11.30;;;5.90;;
19951;SDS011;10137;49.406;19.484;2022-08-23T04:57:02;18.10;;;7.10;;
19951;SDS011;10137;49.406;19.484;2022-08-23T04:59:30;23.67;;;7.07;;
19951;SDS011;10137;49.406;19.484;2022-08-23T05:01:59;16.53;;;6.73;;
19951;SDS011;10137;49.406;19.484;2022-08-23T05:04:27;15.43;;;6.67;;
19951;SDS011;10137;49.406;19.484;2022-08-23T05:06:55;13.00;;;6.73;;
19951;SDS011;10137;49.406;19.484;2022-08-23T05:09:23;15.80;;;6.43;;
19951;SDS011;10137;49.406;19.484;2022-08-23T05:11:52;13.63;;;6.00;;
19951;SDS011;10137;49.406;19.484;2022-08-23T05:14:21;15.70;;;6.57;;
19951;SDS011;10137;49.406;19.484;2022-08-23T05:16:49;15.83;;;7.47;;
19951;SDS011;10137;49.406;19.484;2022-08-23T05:19:19;14.57;;;6.90;;
19951;SDS011;10137;49.406;19.484;2022-08-23T05:21:47;17.77;;;6.73;;
19951;SDS011;10137;49.406;19.484;2022-08-23T05:24:14;15.27;;;6.57;;
19951;SDS011;10137;49.406;19.484;2022-08-23T05:26:41;12.60;;;6.50;;
19951;SDS011;10137;49.406;19.484;2022-08-23T05:29:10;15.17;;;6.63;;
19951;SDS011;10137;49.406;19.484;2022-08-23T05:31:37;13.27;;;6.43;;
19951;SDS011;10137;49.406;19.484;2022-08-23T05:34:04;11.67;;;6.73;;
19951;SDS011;10137;49.406;19.484;2022-08-23T05:36:33;14.40;;;6.50;;
19951;SDS011;10137;49.406;19.484;2022-08-23T05:39:01;13.40;;;6.53;;
19951;SDS011;10137;49.406;19.484;2022-08-23T05:41:29;11.20;;;5.83;;
19951;SDS011;10137;49.406;19.484;2022-08-23T05:43:56;13.73;;;6.63;;
19951;SDS011;10137;49.406;19.484;2022-08-23T05:46:23;12.97;;;6.67;;
19951;SDS011;10137;49.406;19.484;2022-08-23T05:48:51;14.27;;;6.33;;
19951;SDS011;10137;49.406;19.484;2022-08-23T05:51:19;15.83;;;6.93;;
19951;SDS011;10137;49.406;19.484;2022-08-23T05:53:51;16.40;;;6.77;;
19951;SDS011;10137;49.406;19.484;2022-08-23T05:56:20;21.67;;;7.23;;
19951;SDS011;10137;49.406;19.484;2022-08-23T05:58:50;15.60;;;7.47;;
19951;SDS011;10137;49.406;19.484;2022-08-23T06:01:20;16.53;;;7.67;;
19951;SDS011;10137;49.406;19.484;2022-08-23T06:03:49;18.70;;;7.13;;
19951;SDS011;10137;49.406;19.484;2022-08-23T06:06:17;14.90;;;7.03;;
19951;SDS011;10137;49.406;19.484;2022-08-23T06:08:46;16.57;;;6.97;;
19951;SDS011;10137;49.406;19.484;2022-08-23T06:11:17;14.10;;;6.87;;
19951;SDS011;10137;49.406;19.484;2022-08-23T06:13:48;16.20;;;6.50;;
19951;SDS011;10137;49.406;19.484;2022-08-23T06:16:20;19.53;;;6.90;;
19951;SDS011;10137;49.406;19.484;2022-08-23T06:18:50;21.43;;;6.73;;
19951;SDS011;10137;49.406;19.484;2022-08-23T06:21:21;14.40;;;6.97;;
19951;SDS011;10137;49.406;19.484;2022-08-23T06:23:49;14.07;;;6.57;;
19951;SDS011;10137;49.406;19.484;2022-08-23T06:26:20;15.37;;;7.23;;
19951;SDS011;10137;49.406;19.484;2022-08-23T06:28:52;14.03;;;6.70;;
19951;SDS011;10137;49.406;19.484;2022-08-23T06:31:23;11.43;;;7.70;;
19951;SDS011;10137;49.406;19.484;2022-08-23T06:34:12;13.17;;;7.90;;
19951;SDS011;10137;49.406;19.484;2022-08-23T06:36:44;12.00;;;6.90;;
19951;SDS011;10137;49.406;19.484;2022-08-23T06:39:14;13.30;;;7.00;;
19951;SDS011;10137;49.406;19.484;2022-08-23T06:41:44;10.77;;;6.90;;
19951;SDS011;10137;49.406;19.484;2022-08-23T06:44:14;11.30;;;7.90;;
19951;SDS011;10137;49.406;19.484;2022-08-23T06:46:44;15.17;;;7.73;;
19951;SDS011;10137;49.406;19.484;2022-08-23T06:49:13;13.67;;;7.23;;
19951;SDS011;10137;49.406;19.484;2022-08-23T06:51:42;9.40;;;6.13;;
19951;SDS011;10137;49.406;19.484;2022-08-23T06:54:12;9.70;;;6.30;;
19951;SDS011;10137;49.406;19.484;2022-08-23T06:56:43;9.30;;;6.87;;
19951;SDS011;10137;49.406;19.484;2022-08-23T06:59:11;9.63;;;6.60;;
19951;SDS011;10137;49.406;19.484;2022-08-23T07:01:39;9.30;;;6.57;;
19951;SDS011;10137;49.406;19.484;2022-08-23T07:04:11;8.80;;;6.27;;
19951;SDS011;10137;49.406;19.484;2022-08-23T07:06:41;13.93;;;6.90;;
19951;SDS011;10137;49.406;19.484;2022-08-23T07:09:10;11.87;;;6.40;;
19951;SDS011;10137;49.406;19.484;2022-08-23T07:11:38;9.80;;;6.37;;
19951;SDS011;10137;49.406;19.484;2022-08-23T07:14:09;9.87;;;6.73;;
19951;SDS011;10137;49.406;19.484;2022-08-23T07:16:40;10.47;;;6.37;;
19951;SDS011;10137;49.406;19.484;2022-08-23T07:19:11;11.27;;;6.47;;
19951;SDS011;10137;49.406;19.484;2022-08-23T07:21:39;12.53;;;6.73;;
19951;SDS011;10137;49.406;19.484;2022-08-23T07:24:08;11.27;;;6.57;;
19951;SDS011;10137;49.406;19.484;2022-08-23T07:26:39;9.33;;;6.63;;
19951;SDS011;10137;49.406;19.484;2022-08-23T07:29:12;13.40;;;6.83;;
19951;SDS011;10137;49.406;19.484;2022-08-23T07:31:43;13.50;;;6.93;;
19951;SDS011;10137;49.406;19.484;2022-08-23T07:34:13;9.37;;;5.93;;
19951;SDS011;10137;49.406;19.484;2022-08-23T07:36:42;12.10;;;5.80;;
19951;SDS011;10137;49.406;19.484;2022-08-23T07:39:12;12.23;;;6.43;;
19951;SDS011;10137;49.406;19.484;2022-08-23T07:41:41;16.20;;;6.30;;
19951;SDS011;10137;49.406;19.484;2022-08-23T07:44:09;7.60;;;5.60;;
19951;SDS011;10137;49.406;19.484;2022-08-23T07:46:40;10.27;;;5.97;;
19951;SDS011;10137;49.406;19.484;2022-08-23T07:49:08;8.30;;;5.60;;
19951;SDS011;10137;49.406;19.484;2022-08-23T07:51:39;7.97;;;6.10;;
19951;SDS011;10137;49.406;19.484;2022-08-23T07:54:10;7.40;;;5.67;;
19951;SDS011;10137;49.406;19.484;2022-08-23T07:56:39;8.83;;;5.67;;
19951;SDS011;10137;49.406;19.484;2022-08-23T07:59:07;8.33;;;5.80;;
19951;SDS011;10137;49.406;19.484;2022-08-23T08:01:37;9.50;;;5.90;;
19951;SDS011;10137;49.406;19.484;2022-08-23T08:04:08;8.03;;;6.33;;
19951;SDS011;10137;49.406;19.484;2022-08-23T08:06:38;8.27;;;6.23;;
19951;SDS011;10137;49.406;19.484;2022-08-23T08:09:08;8.53;;;6.10;;
19951;SDS011;10137;49.406;19.484;2022-08-23T08:11:39;10.20;;;5.47;;
19951;SDS011;10137;49.406;19.484;2022-08-23T08:14:09;7.47;;;6.00;;
19951;SDS011;10137;49.406;19.484;2022-08-23T08:16:41;8.20;;;5.40;;
19951;SDS011;10137;49.406;19.484;2022-08-23T08:19:11;6.05;;;5.22;;
19951;SDS011;10137;49.406;19.484;2022-08-23T08:21:42;8.13;;;5.63;;
19951;SDS011;10137;49.406;19.484;2022-08-23T08:24:12;10.07;;;6.30;;
19951;SDS011;10137;49.406;19.484;2022-08-23T08:26:42;13.37;;;6.37;;
19951;SDS011;10137;49.406;19.484;2022-08-23T08:29:11;9.23;;;5.93;;
19951;SDS011;10137;49.406;19.484;2022-08-23T08:31:42;9.55;;;5.97;;
19951;SDS011;10137;49.406;19.484;2022-08-23T08:34:13;13.30;;;6.20;;
19951;SDS011;10137;49.406;19.484;2022-08-23T08:36:43;10.82;;;6.15;;
19951;SDS011;10137;49.406;19.484;2022-08-23T08:39:13;7.93;;;5.65;;
19951;SDS011;10137;49.406;19.484;2022-08-23T08:41:45;9.77;;;6.10;;
19951;SDS011;10137;49.406;19.484;2022-08-23T08:44:25;5.95;;;4.95;;
19951;SDS011;10137;49.406;19.484;2022-08-23T08:47:05;7.82;;;5.90;;
19951;SDS011;10137;49.406;19.484;2022-08-23T08:49:38;10.52;;;5.93;;
19951;SDS011;10137;49.406;19.484;2022-08-23T08:52:13;8.95;;;5.88;;
19951;SDS011;10137;49.406;19.484;2022-08-23T08:54:44;7.82;;;5.28;;
19951;SDS011;10137;49.406;19.484;2022-08-23T08:57:17;7.20;;;4.90;;
19951;SDS011;10137;49.406;19.484;2022-08-23T08:59:50;6.80;;;4.70;;
19951;SDS011;10137;49.406;19.484;2022-08-23T09:02:23;8.68;;;5.03;;
19951;SDS011;10137;49.406;19.484;2022-08-23T09:04:53;6.57;;;4.63;;
19951;SDS011;10137;49.406;19.484;2022-08-23T09:07:22;7.30;;;4.78;;
19951;SDS011;10137;49.406;19.484;2022-08-23T09:10:04;7.85;;;5.25;;
19951;SDS011;10137;49.406;19.484;2022-08-23T09:12:44;6.35;;;5.03;;
19951;SDS011;10137;49.406;19.484;2022-08-23T09:15:24;9.77;;;5.03;;
19951;SDS011;10137;49.406;19.484;2022-08-23T09:18:04;7.07;;;4.82;;
19951;SDS011;10137;49.406;19.484;2022-08-23T09:20:36;6.20;;;5.28;;
19951;SDS011;10137;49.406;19.484;2022-08-23T09:23:07;8.82;;;4.72;;
19951;SDS011;10137;49.406;19.484;2022-08-23T09:25:38;8.50;;;5.03;;
19951;SDS011;10137;49.406;19.484;2022-08-23T09:28:07;6.53;;;4.70;;
19951;SDS011;10137;49.406;19.484;2022-08-23T09:30:50;6.68;;;4.68;;
19951;SDS011;10137;49.406;19.484;2022-08-23T09:33:22;5.22;;;4.55;;
19951;SDS011;10137;49.406;19.484;2022-08-23T09:36:02;6.25;;;4.47;;
19951;SDS011;10137;49.406;19.484;2022-08-23T09:38:33;5.53;;;4.30;;
19951;SDS011;10137;49.406;19.484;2022-08-23T09:41:00;4.97;;;4.32;;
19951;SDS011;10137;49.406;19.484;2022-08-23T09:43:31;8.70;;;5.32;;
19951;SDS011;10137;49.406;19.484;2022-08-23T09:46:16;6.95;;;4.20;;
19951;SDS011;10137;49.406;19.484;2022-08-23T09:48:52;5.50;;;4.07;;
19951;SDS011;10137;49.406;19.484;2022-08-23T09:51:24;7.20;;;4.43;;
19951;SDS011;10137;49.406;19.484;2022-08-23T09:54:06;5.35;;;4.45;;
19951;SDS011;10137;49.406;19.484;2022-08-23T09:56:36;5.80;;;4.22;;
19951;SDS011;10137;49.406;19.484;2022-08-23T10:02:00;5.55;;;4.10;;
19951;SDS011;10137;49.406;19.484;2022-08-23T10:07:25;7.72;;;4.30;;
19951;SDS011;10137;49.406;19.484;2022-08-23T10:10:11;6.20;;;3.85;;
19951;SDS011;10137;49.406;19.484;2022-08-23T10:12:42;6.15;;;4.03;;
19951;SDS011;10137;49.406;19.484;2022-08-23T10:15:11;5.82;;;3.80;;
19951;SDS011;10137;49.406;19.484;2022-08-23T10:17:42;7.20;;;4.15;;
19951;SDS011;10137;49.406;19.484;2022-08-23T10:20:19;4.85;;;4.30;;
19951;SDS011;10137;49.406;19.484;2022-08-23T10:23:02;6.05;;;4.28;;
19951;SDS011;10137;49.406;19.484;2022-08-23T10:25:41;7.28;;;4.25;;
19951;SDS011;10137;49.406;19.484;2022-08-23T10:28:14;6.65;;;4.38;;
19951;SDS011;10137;49.406;19.484;2022-08-23T10:31:11;6.72;;;4.55;;
19951;SDS011;10137;49.406;19.484;2022-08-23T10:33:48;7.65;;;4.30;;
19951;SDS011;10137;49.406;19.484;2022-08-23T10:36:37;7.40;;;4.50;;
19951;SDS011;10137;49.406;19.484;2022-08-23T10:39:13;4.65;;;4.00;;
19951;SDS011;10137;49.406;19.484;2022-08-23T10:41:49;4.78;;;3.90;;
19951;SDS011;10137;49.406;19.484;2022-08-23T10:44:26;5.30;;;4.10;;
19951;SDS011;10137;49.406;19.484;2022-08-23T10:47:03;4.97;;;3.97;;
19951;SDS011;10137;49.406;19.484;2022-08-23T10:49:39;6.03;;;4.22;;
19951;SDS011;10137;49.406;19.484;2022-08-23T10:52:12;4.93;;;4.10;;
19951;SDS011;10137;49.406;19.484;2022-08-23T10:54:46;5.07;;;3.63;;
19951;SDS011;10137;49.406;19.484;2022-08-23T10:57:33;4.15;;;3.60;;
19951;SDS011;10137;49.406;19.484;2022-08-23T11:00:04;4.68;;;3.67;;
19951;SDS011;10137;49.406;19.484;2022-08-23T11:02:35;5.07;;;3.47;;
19951;SDS011;10137;49.406;19.484;2022-08-23T11:05:16;5.28;;;3.83;;
19951;SDS011;10137;49.406;19.484;2022-08-23T11:07:57;7.20;;;4.07;;
19951;SDS011;10137;49.406;19.484;2022-08-23T11:10:32;6.20;;;3.80;;
19951;SDS011;10137;49.406;19.484;2022-08-23T11:13:18;4.20;;;3.13;;
19951;SDS011;10137;49.406;19.484;2022-08-23T11:15:54;4.68;;;3.35;;
19951;SDS011;10137;49.406;19.484;2022-08-23T11:18:37;4.20;;;3.10;;
19951;SDS011;10137;49.406;19.484;2022-08-23T11:33:15;3.58;;;3.10;;
19951;SDS011;10137;49.406;19.484;2022-08-23T11:35:49;4.32;;;3.20;;
19951;SDS011;10137;49.406;19.484;2022-08-23T11:41:21;5.25;;;3.33;;
19951;SDS011;10137;49.406;19.484;2022-08-23T11:46:57;5.30;;;3.30;;
19951;SDS011;10137;49.406;19.484;2022-08-23T11:53:00;4.43;;;3.15;;
19951;SDS011;10137;49.406;19.484;2022-08-23T11:55:50;4.82;;;3.40;;
19951;SDS011;10137;49.406;19.484;2022-08-23T11:58:56;4.22;;;3.45;;
19951;SDS011;10137;49.406;19.484;2022-08-23T12:01:33;4.72;;;3.53;;
19951;SDS011;10137;49.406;19.484;2022-08-23T12:04:02;3.75;;;3.15;;
19951;SDS011;10137;49.406;19.484;2022-08-23T12:06:38;5.35;;;3.90;;
19951;SDS011;10137;49.406;19.484;2022-08-23T12:09:13;4.43;;;3.22;;
19951;SDS011;10137;49.406;19.484;2022-08-23T12:12:32;4.70;;;3.45;;
19951;SDS011;10137;49.406;19.484;2022-08-23T12:15:03;7.10;;;3.67;;
19951;SDS011;10137;49.406;19.484;2022-08-23T12:20:38;4.43;;;3.70;;
19951;SDS011;10137;49.406;19.484;2022-08-23T12:23:19;4.25;;;3.78;;
19951;SDS011;10137;49.406;19.484;2022-08-23T12:28:35;4.25;;;3.60;;
19951;SDS011;10137;49.406;19.484;2022-08-23T12:31:14;6.00;;;3.35;;
19951;SDS011;10137;49.406;19.484;2022-08-23T12:33:54;4.47;;;3.42;;
19951;SDS011;10137;49.406;19.484;2022-08-23T12:36:32;4.55;;;3.72;;
19951;SDS011;10137;49.406;19.484;2022-08-23T12:39:19;6.35;;;3.85;;
19951;SDS011;10137;49.406;19.484;2022-08-23T12:41:55;4.18;;;3.53;;
19951;SDS011;10137;49.406;19.484;2022-08-23T12:44:26;6.57;;;3.65;;
19951;SDS011;10137;49.406;19.484;2022-08-23T12:46:57;3.55;;;3.22;;
19951;SDS011;10137;49.406;19.484;2022-08-23T12:49:38;5.38;;;3.50;;
19951;SDS011;10137;49.406;19.484;2022-08-23T12:52:07;4.40;;;3.80;;
19951;SDS011;10137;49.406;19.484;2022-08-23T12:54:40;4.50;;;3.60;;
19951;SDS011;10137;49.406;19.484;2022-08-23T12:57:11;5.15;;;3.70;;
19951;SDS011;10137;49.406;19.484;2022-08-23T12:59:44;6.60;;;3.90;;
19951;SDS011;10137;49.406;19.484;2022-08-23T13:02:23;3.85;;;3.45;;
19951;SDS011;10137;49.406;19.484;2022-08-23T13:04:55;5.53;;;3.85;;
19951;SDS011;10137;49.406;19.484;2022-08-23T13:07:28;3.85;;;3.45;;
19951;SDS011;10137;49.406;19.484;2022-08-23T13:09:57;4.68;;;3.70;;
19951;SDS011;10137;49.406;19.484;2022-08-23T13:12:26;5.03;;;3.70;;
19951;SDS011;10137;49.406;19.484;2022-08-23T13:14:54;5.55;;;3.88;;
19951;SDS011;10137;49.406;19.484;2022-08-23T13:17:33;3.95;;;3.25;;
19951;SDS011;10137;49.406;19.484;2022-08-23T13:20:15;4.40;;;3.60;;
19951;SDS011;10137;49.406;19.484;2022-08-23T13:22:57;8.15;;;4.03;;
19951;SDS011;10137;49.406;19.484;2022-08-23T13:25:29;5.75;;;3.65;;
19951;SDS011;10137;49.406;19.484;2022-08-23T13:28:00;5.00;;;3.92;;
19951;SDS011;10137;49.406;19.484;2022-08-23T13:30:30;7.07;;;4.03;;
19951;SDS011;10137;49.406;19.484;2022-08-23T13:33:20;5.63;;;3.70;;
19951;SDS011;10137;49.406;19.484;2022-08-23T13:35:49;4.18;;;3.78;;
19951;SDS011;10137;49.406;19.484;2022-08-23T13:38:34;5.57;;;3.55;;
19951;SDS011;10137;49.406;19.484;2022-08-23T13:41:02;4.00;;;3.35;;
19951;SDS011;10137;49.406;19.484;2022-08-23T13:43:36;5.07;;;4.10;;
19951;SDS011;10137;49.406;19.484;2022-08-23T13:46:13;4.32;;;3.20;;
19951;SDS011;10137;49.406;19.484;2022-08-23T13:48:46;4.80;;;3.63;;
19951;SDS011;10137;49.406;19.484;2022-08-23T13:51:24;4.18;;;3.65;;
19951;SDS011;10137;49.406;19.484;2022-08-23T13:53:57;5.53;;;3.42;;
19951;SDS011;10137;49.406;19.484;2022-08-23T13:56:38;6.43;;;3.78;;
19951;SDS011;10137;49.406;19.484;2022-08-23T13:59:24;4.35;;;3.95;;
19951;SDS011;10137;49.406;19.484;2022-08-23T14:01:57;6.55;;;3.50;;
19951;SDS011;10137;49.406;19.484;2022-08-23T14:04:34;4.20;;;3.63;;
19951;SDS011;10137;49.406;19.484;2022-08-23T14:07:02;9.18;;;4.25;;
19951;SDS011;10137;49.406;19.484;2022-08-23T14:09:32;11.10;;;5.28;;
19951;SDS011;10137;49.406;19.484;2022-08-23T14:12:03;10.32;;;5.70;;
19951;SDS011;10137;49.406;19.484;2022-08-23T14:14:34;6.13;;;4.50;;
19951;SDS011;10137;49.406;19.484;2022-08-23T14:17:02;8.50;;;4.30;;
19951;SDS011;10137;49.406;19.484;2022-08-23T14:19:32;5.75;;;3.58;;
19951;SDS011;10137;49.406;19.484;2022-08-23T14:22:01;7.90;;;3.78;;
19951;SDS011;10137;49.406;19.484;2022-08-23T14:24:31;5.05;;;3.65;;
19951;SDS011;10137;49.406;19.484;2022-08-23T14:26:59;5.93;;;3.70;;
19951;SDS011;10137;49.406;19.484;2022-08-23T14:29:27;5.13;;;3.50;;
19951;SDS011;10137;49.406;19.484;2022-08-23T14:31:55;5.60;;;3.30;;
19951;SDS011;10137;49.406;19.484;2022-08-23T14:34:24;4.25;;;3.45;;
19951;SDS011;10137;49.406;19.484;2022-08-23T14:36:53;5.60;;;3.55;;
19951;SDS011;10137;49.406;19.484;2022-08-23T14:39:23;5.57;;;4.18;;
19951;SDS011;10137;49.406;19.484;2022-08-23T14:41:51;7.53;;;4.53;;
19951;SDS011;10137;49.406;19.484;2022-08-23T14:44:20;6.70;;;4.63;;
19951;SDS011;10137;49.406;19.484;2022-08-23T14:46:48;7.28;;;4.82;;
19951;SDS011;10137;49.406;19.484;2022-08-23T14:49:16;7.88;;;4.80;;
19951;SDS011;10137;49.406;19.484;2022-08-23T14:51:45;6.15;;;4.85;;
19951;SDS011;10137;49.406;19.484;2022-08-23T14:54:18;5.63;;;4.88;;
19951;SDS011;10137;49.406;19.484;2022-08-23T14:56:49;6.72;;;5.72;;
19951;SDS011;10137;49.406;19.484;2022-08-23T14:59:17;6.38;;;5.13;;
19951;SDS011;10137;49.406;19.484;2022-08-23T15:01:45;7.20;;;5.03;;
19951;SDS011;10137;49.406;19.484;2022-08-23T15:04:16;8.48;;;5.05;;
19951;SDS011;10137;49.406;19.484;2022-08-23T15:06:44;8.75;;;6.32;;
19951;SDS011;10137;49.406;19.484;2022-08-23T15:09:12;8.40;;;5.78;;
19951;SDS011;10137;49.406;19.484;2022-08-23T15:11:41;6.10;;;5.07;;
19951;SDS011;10137;49.406;19.484;2022-08-23T15:14:09;8.13;;;5.50;;
19951;SDS011;10137;49.406;19.484;2022-08-23T15:16:37;9.20;;;5.65;;
19951;SDS011;10137;49.406;19.484;2022-08-23T15:19:05;6.93;;;5.35;;
19951;SDS011;10137;49.406;19.484;2022-08-23T15:21:34;7.28;;;5.78;;
19951;SDS011;10137;49.406;19.484;2022-08-23T15:24:03;8.07;;;5.78;;
19951;SDS011;10137;49.406;19.484;2022-08-23T15:26:35;9.32;;;6.28;;
19951;SDS011;10137;49.406;19.484;2022-08-23T15:29:09;10.05;;;6.43;;
19951;SDS011;10137;49.406;19.484;2022-08-23T15:31:37;8.05;;;6.65;;